Time;durP1;ratioP1;P1;durP2;ratioP2;P2;SDS_P1;SDS_P2;PMS_P1;PMS_P2;Temp;Humidity;BMP_temperature;BMP_pressure;BME280_temperature;BME280_humidity;BME280_pressure;Samples;Min_cycle;Max_cycle;Signal;HPM_P1;HPM_P2
2022/06/27 00:01:11;;;;;;;6.65;3.75;;;18.70;99.90;;;;;;5074819;22;20403;-69
2022/06/27 00:03:37;;;;;;;6.00;3.20;;;19.60;99.90;;;;;;5050546;28;20075;-71
2022/06/27 00:06:02;;;;;;;4.68;3.22;;;18.50;99.90;;;;;;5034573;28;20033;-70
2022/06/27 00:08:28;;;;;;;6.28;3.35;;;18.30;99.90;;;;;;5034642;28;20045;-71
2022/06/27 00:10:54;;;;;;;7.50;3.45;;;19.80;99.90;;;;;;5051209;28;20518;-68
2022/06/27 00:13:19;;;;;;;6.75;3.75;;;18.60;99.90;;;;;;5049130;28;20354;-69
2022/06/27 00:15:45;;;;;;;5.65;3.47;;;18.20;99.90;;;;;;5033970;28;20040;-72
2022/06/27 00:18:10;;;;;;;8.32;3.85;;;18.60;99.90;;;;;;5050664;28;20471;-71
2022/06/27 00:20:36;;;;;;;6.43;3.60;;;19.20;99.90;;;;;;5051150;28;20037;-69
2022/06/27 00:23:02;;;;;;;4.22;3.40;;;18.20;99.90;;;;;;5050443;28;20127;-71
2022/06/27 00:25:27;;;;;;;8.40;3.58;;;19.00;99.90;;;;;;5050638;28;20124;-71
2022/06/27 00:27:53;;;;;;;6.10;3.45;;;18.10;99.90;;;;;;5050538;28;20036;-69
2022/06/27 00:30:19;;;;;;;5.43;3.15;;;18.20;99.90;;;;;;5049647;28;20082;-69
2022/06/27 00:32:45;;;;;;;4.55;3.38;;;19.40;99.90;;;;;;5050554;28;20076;-72
2022/06/27 00:35:11;;;;;;;7.15;3.67;;;19.10;99.90;;;;;;5050138;28;20076;-69
2022/06/27 00:37:37;;;;;;;5.60;3.85;;;18.10;99.90;;;;;;5050291;28;20482;-69
2022/06/27 00:40:06;;;;;;;6.90;3.55;;;18.10;99.90;;;;;;5050692;28;20041;-69
2022/06/27 00:42:32;;;;;;;5.25;3.38;;;18.00;99.90;;;;;;5050096;28;20044;-69
2022/06/27 00:44:57;;;;;;;5.07;3.78;;;18.80;99.90;;;;;;5051307;28;20040;-69
2022/06/27 00:47:23;;;;;;;4.38;2.90;;;18.00;99.90;;;;;;5050132;28;20052;-69
2022/06/27 00:49:49;;;;;;;7.32;4.10;;;18.90;99.90;;;;;;5049610;28;20417;-69
2022/06/27 00:52:14;;;;;;;6.38;3.90;;;18.10;99.90;;;;;;5050230;28;20048;-69
2022/06/27 00:54:42;;;;;;;12.07;4.07;;;19.30;99.90;;;;;;5051351;28;20068;-69
2022/06/27 00:57:11;;;;;;;6.47;3.65;;;18.00;99.90;;;;;;5050083;28;20044;-70
2022/06/27 00:59:37;;;;;;;6.57;3.88;;;18.10;99.90;;;;;;5049222;28;20521;-69
2022/06/27 01:02:03;;;;;;;5.82;3.33;;;18.40;99.90;;;;;;5048742;28;20044;-69
2022/06/27 01:04:29;;;;;;;5.13;3.45;;;18.10;99.90;;;;;;5051447;28;20048;-69
2022/06/27 01:06:56;;;;;;;4.35;3.60;;;18.30;99.90;;;;;;5053145;28;20091;-69
2022/06/27 01:09:22;;;;;;;8.45;3.45;;;18.30;99.90;;;;;;5036683;28;20461;-69
2022/06/27 01:11:49;;;;;;;6.65;3.55;;;18.80;99.90;;;;;;5055411;28;20045;-69
2022/06/27 01:14:16;;;;;;;5.55;3.67;;;18.90;99.90;;;;;;5055420;28;20116;-69
2022/06/27 01:16:42;;;;;;;6.65;4.03;;;18.20;99.90;;;;;;5054215;28;20433;-69
2022/06/27 01:19:14;;;;;;;5.70;3.75;;;17.90;99.90;;;;;;5053244;28;20044;-69
2022/06/27 01:21:45;;;;;;;4.50;3.63;;;18.10;99.90;;;;;;5054285;28;20124;-69
2022/06/27 01:24:11;;;;;;;5.70;3.75;;;18.00;99.90;;;;;;5053932;28;20045;-69
2022/06/27 01:26:37;;;;;;;5.18;4.57;;;18.10;99.90;;;;;;5053831;28;20410;-69
2022/06/27 01:29:04;;;;;;;4.95;3.83;;;18.00;99.90;;;;;;5054626;28;20048;-69
2022/06/27 01:31:30;;;;;;;5.50;3.63;;;18.00;99.90;;;;;;5036972;28;20052;-69
2022/06/27 01:33:57;;;;;;;8.85;4.00;;;17.90;99.90;;;;;;5037091;28;20499;-69
2022/06/27 01:39:11;;;;;;;5.97;3.80;;;18.00;99.90;;;;;;5052701;28;20089;-67
2022/06/27 01:41:48;;;;;;;5.05;4.53;;;18.10;99.90;;;;;;5036878;28;20049;-69
2022/06/27 01:44:14;;;;;;;5.80;3.83;;;17.90;99.90;;;;;;5053923;28;20518;-69
2022/06/27 01:46:53;;;;;;;5.15;4.30;;;18.10;99.90;;;;;;5054818;28;20520;-69
2022/06/27 01:49:19;;;;;;;6.22;4.30;;;18.10;99.90;;;;;;5053001;28;20185;-69
2022/06/27 01:51:46;;;;;;;10.60;4.63;;;18.00;99.90;;;;;;5053100;28;20123;-69
2022/06/27 01:54:14;;;;;;;6.47;3.90;;;18.10;99.90;;;;;;5054488;28;20037;-69
2022/06/27 01:56:41;;;;;;;6.15;4.43;;;18.20;99.90;;;;;;5043294;28;20114;-70
2022/06/27 01:59:08;;;;;;;8.38;4.22;;;18.10;99.90;;;;;;5061705;28;20040;-67
2022/06/27 02:01:35;;;;;;;6.00;3.85;;;19.10;99.90;;;;;;5044497;28;20064;-69
2022/06/27 02:04:01;;;;;;;5.00;4.07;;;18.10;99.90;;;;;;5063621;28;20037;-69
2022/06/27 02:06:29;;;;;;;7.13;4.05;;;17.90;99.90;;;;;;5062383;28;20110;-69
2022/06/27 02:08:56;;;;;;;6.22;3.78;;;18.70;99.90;;;;;;5061677;28;20037;-69
2022/06/27 02:11:22;;;;;;;6.32;4.00;;;18.00;99.90;;;;;;5053255;28;20044;-69
2022/06/27 02:13:48;;;;;;;8.43;5.03;;;18.60;99.90;;;;;;5053475;28;20183;-69
2022/06/27 02:16:16;;;;;;;5.22;4.25;;;17.90;99.90;;;;;;5054485;28;20061;-69
2022/06/27 02:18:43;;;;;;;6.80;4.78;;;18.20;99.90;;;;;;5053556;28;20040;-69
2022/06/27 02:21:11;;;;;;;7.30;4.45;;;18.30;99.90;;;;;;5035831;28;20060;-69
2022/06/27 02:23:37;;;;;;;7.18;3.85;;;18.60;99.90;;;;;;5054432;28;20365;-69
2022/06/27 02:26:04;;;;;;;7.40;4.15;;;18.60;99.90;;;;;;5053033;28;20142;-69
2022/06/27 02:28:30;;;;;;;7.03;4.65;;;18.00;99.90;;;;;;5052934;28;20402;-69
2022/06/27 02:30:56;;;;;;;6.68;4.40;;;17.90;99.90;;;;;;5053060;28;20040;-69
2022/06/27 02:33:22;;;;;;;10.45;4.30;;;18.60;99.90;;;;;;5035897;28;20041;-70
2022/06/27 02:35:50;;;;;;;4.95;4.20;;;17.80;99.90;;;;;;5052719;28;20029;-68
2022/06/27 02:38:17;;;;;;;4.88;3.55;;;18.70;99.90;;;;;;5035825;28;20037;-68
2022/06/27 02:40:44;;;;;;;5.78;4.13;;;18.60;99.90;;;;;;5051589;28;20075;-69
2022/06/27 02:43:13;;;;;;;4.57;3.80;;;18.00;99.90;;;;;;5053800;28;20111;-69
2022/06/27 02:45:40;;;;;;;8.05;4.63;;;18.40;99.90;;;;;;5035798;28;20073;-69
2022/06/27 02:48:08;;;;;;;5.47;4.22;;;17.90;99.90;;;;;;5052346;28;20073;-69
2022/06/27 02:50:36;;;;;;;6.25;4.05;;;18.10;99.90;;;;;;5053042;28;20037;-69
2022/06/27 02:53:09;;;;;;;8.38;4.00;;;18.80;99.90;;;;;;5053539;28;20408;-69
2022/06/27 02:55:38;;;;;;;6.60;4.07;;;18.00;99.90;;;;;;5053575;28;20037;-69
2022/06/27 02:58:17;;;;;;;7.47;4.25;;;18.00;99.90;;;;;;5053507;28;20044;-69
2022/06/27 03:00:43;;;;;;;6.10;4.55;;;18.20;99.90;;;;;;5051534;28;20074;-69
2022/06/27 03:03:13;;;;;;;7.88;4.45;;;17.80;99.90;;;;;;5051870;28;20512;-69
2022/06/27 03:06:14;;;;;;;7.25;4.68;;;19.10;99.90;;;;;;5052049;28;20498;-69
2022/06/27 03:08:42;;;;;;;5.57;4.03;;;19.00;99.90;;;;;;4995156;28;20084;-69
2022/06/27 03:11:10;;;;;;;9.75;5.10;;;17.90;99.90;;;;;;5040442;28;20049;-69
2022/06/27 03:13:36;;;;;;;7.80;5.00;;;19.00;99.90;;;;;;5051981;28;20380;-69
2022/06/27 03:16:02;;;;;;;9.32;4.68;;;17.90;99.90;;;;;;5051787;28;20124;-70
2022/06/27 03:18:28;;;;;;;8.07;4.88;;;17.80;99.90;;;;;;5052099;28;20049;-69
2022/06/27 03:20:54;;;;;;;8.48;5.28;;;19.00;99.90;;;;;;5052130;28;20040;-69
2022/06/27 03:23:19;;;;;;;7.85;4.72;;;17.90;99.90;;;;;;5051600;28;20037;-69
2022/06/27 03:25:45;;;;;;;6.57;4.68;;;17.90;99.90;;;;;;5035212;28;20052;-69
2022/06/27 03:28:11;;;;;;;8.70;5.22;;;18.00;99.90;;;;;;5052967;28;20140;-69
2022/06/27 03:30:36;;;;;;;9.35;6.35;;;17.80;99.90;;;;;;5049983;28;20128;-69
2022/06/27 03:33:02;;;;;;;8.27;6.93;;;17.90;99.90;;;;;;5051370;28;20037;-69
2022/06/27 03:35:28;;;;;;;8.82;6.60;;;18.30;99.90;;;;;;5051547;28;20090;-69
2022/06/27 03:37:53;;;;;;;12.65;9.25;;;17.90;99.90;;;;;;5051432;28;20073;-69
2022/06/27 03:40:19;;;;;;;11.88;8.50;;;17.90;99.90;;;;;;5050530;28;20051;-69
2022/06/27 03:42:45;;;;;;;12.43;8.15;;;17.80;99.90;;;;;;5051256;28;20037;-69
2022/06/27 03:45:11;;;;;;;11.57;7.13;;;18.30;99.90;;;;;;5052756;28;20091;-69
2022/06/27 03:47:51;;;;;;;7.38;6.43;;;18.00;99.90;;;;;;5051572;28;20525;-69
2022/06/27 03:50:18;;;;;;;8.20;5.65;;;17.90;99.90;;;;;;5050400;28;20490;-69
2022/06/27 03:52:44;;;;;;;5.95;5.00;;;17.90;99.90;;;;;;5051375;28;20068;-69
2022/06/27 03:55:10;;;;;;;6.95;5.22;;;18.10;99.90;;;;;;5050982;28;20087;-69
2022/06/27 03:57:38;;;;;;;11.35;6.97;;;17.70;99.90;;;;;;5052335;28;20041;-69
2022/06/27 04:00:10;;;;;;;7.88;5.60;;;17.70;99.90;;;;;;5050656;28;20064;-68
2022/06/27 04:02:35;;;;;;;6.83;5.87;;;17.70;99.90;;;;;;5050898;28;20461;-69
2022/06/27 04:05:05;;;;;;;9.55;6.70;;;17.70;99.90;;;;;;5051239;28;20128;-69
2022/06/27 04:07:30;;;;;;;9.23;6.78;;;17.80;99.90;;;;;;5051024;28;20128;-69
2022/06/27 04:09:57;;;;;;;9.40;6.85;;;17.90;99.90;;;;;;5051362;28;20175;-69
2022/06/27 04:12:23;;;;;;;13.10;7.75;;;17.90;99.90;;;;;;5050853;28;20045;-69
2022/06/27 04:14:49;;;;;;;10.25;6.93;;;18.40;99.90;;;;;;5050672;28;20558;-69
2022/06/27 04:17:15;;;;;;;14.20;8.07;;;18.70;99.90;;;;;;5050781;28;20116;-70
2022/06/27 04:19:40;;;;;;;9.48;7.38;;;17.80;99.90;;;;;;5033048;28;20462;-69
2022/06/27 04:22:08;;;;;;;10.48;7.15;;;17.90;99.90;;;;;;5050443;28;20055;-69
2022/06/27 04:24:34;;;;;;;11.48;8.80;;;18.30;99.90;;;;;;5034071;28;20124;-69
2022/06/27 04:27:00;;;;;;;11.75;8.23;;;17.90;99.90;;;;;;5050459;28;20083;-69
2022/06/27 04:29:26;;;;;;;14.00;9.57;;;18.00;99.90;;;;;;5033055;28;20115;-69
2022/06/27 04:31:52;;;;;;;11.98;9.75;;;17.90;99.90;;;;;;5051816;28;20036;-69
2022/06/27 04:34:18;;;;;;;15.02;9.07;;;19.00;99.90;;;;;;5050470;28;20041;-69
2022/06/27 04:36:45;;;;;;;12.05;9.13;;;17.80;99.90;;;;;;5050359;28;20052;-67
2022/06/27 04:39:15;;;;;;;10.27;8.38;;;19.30;99.90;;;;;;5049725;28;20041;-69
2022/06/27 04:41:44;;;;;;;11.55;8.80;;;18.30;99.90;;;;;;5051191;28;20056;-69
2022/06/27 04:44:11;;;;;;;11.68;9.75;;;18.70;99.90;;;;;;5033845;28;20052;-69
2022/06/27 04:46:37;;;;;;;15.63;8.98;;;18.00;99.90;;;;;;5051483;28;20510;-69
2022/06/27 04:49:03;;;;;;;14.75;10.32;;;18.00;99.90;;;;;;5050962;28;20037;-69
2022/06/27 04:51:29;;;;;;;11.05;8.77;;;17.90;99.90;;;;;;5051159;28;20049;-71
2022/06/27 04:53:55;;;;;;;11.02;8.52;;;18.80;99.90;;;;;;5050130;28;20037;-69
2022/06/27 04:56:21;;;;;;;11.63;8.18;;;18.50;99.90;;;;;;5051365;28;20076;-69
2022/06/27 04:58:46;;;;;;;12.85;8.95;;;18.10;99.90;;;;;;5050116;28;20171;-69
2022/06/27 05:01:12;;;;;;;11.07;8.70;;;18.20;99.90;;;;;;5048160;28;20466;-69
2022/06/27 05:03:38;;;;;;;12.20;10.13;;;19.00;99.90;;;;;;5033609;28;20051;-69
2022/06/27 05:06:04;;;;;;;16.27;10.75;;;18.00;99.90;;;;;;5033432;28;20523;-69
2022/06/27 05:08:31;;;;;;;15.02;10.73;;;18.10;99.90;;;;;;5049826;28;20116;-69
2022/06/27 05:10:57;;;;;;;14.90;10.60;;;18.10;99.90;;;;;;5049166;28;20052;-69
2022/06/27 05:13:23;;;;;;;13.98;11.38;;;18.40;99.90;;;;;;5051254;28;20041;-69
2022/06/27 05:15:49;;;;;;;14.10;10.25;;;18.70;99.90;;;;;;5033360;28;20124;-69
2022/06/27 05:18:15;;;;;;;17.00;12.07;;;19.20;99.90;;;;;;5050128;28;20052;-70
2022/06/27 05:20:42;;;;;;;19.73;13.38;;;18.50;99.90;;;;;;5049413;28;20484;-69
2022/06/27 05:23:08;;;;;;;16.65;12.95;;;18.20;99.90;;;;;;5049937;28;20068;-69
2022/06/27 05:25:34;;;;;;;15.60;12.43;;;18.30;99.90;;;;;;5050132;28;20033;-69
2022/06/27 05:28:02;;;;;;;16.92;13.80;;;19.70;99.90;;;;;;5051284;28;20559;-69
2022/06/27 05:30:28;;;;;;;16.38;13.73;;;18.70;99.90;;;;;;5050427;28;20118;-70
2022/06/27 05:32:54;;;;;;;15.55;12.93;;;18.30;99.90;;;;;;5050010;28;20104;-70
2022/06/27 05:35:21;;;;;;;16.75;13.65;;;18.40;99.90;;;;;;5051008;28;20444;-70
2022/06/27 05:37:47;;;;;;;16.05;11.77;;;18.40;99.90;;;;;;5050061;28;20387;-70
2022/06/27 05:40:14;;;;;;;18.30;13.38;;;18.70;99.90;;;;;;5048944;28;20043;-70
2022/06/27 05:42:40;;;;;;;16.15;13.10;;;18.50;99.90;;;;;;5049658;28;20518;-71
2022/06/27 05:45:07;;;;;;;16.83;13.23;;;20.00;99.90;;;;;;5051066;28;20040;-71
2022/06/27 05:47:33;;;;;;;16.63;12.50;;;18.80;99.90;;;;;;5050976;28;20114;-70
2022/06/27 05:49:59;;;;;;;19.15;14.40;;;18.60;99.90;;;;;;5050111;28;20071;-70
2022/06/27 05:52:25;;;;;;;17.48;13.52;;;18.90;99.90;;;;;;5050253;28;20044;-70
2022/06/27 05:54:52;;;;;;;17.35;14.23;;;18.70;99.90;;;;;;5053343;28;20499;-70
2022/06/27 05:57:19;;;;;;;17.25;12.50;;;19.00;99.90;;;;;;5053354;28;20047;-70
2022/06/27 05:59:45;;;;;;;19.52;14.93;;;18.80;99.90;;;;;;5053886;28;20037;-70
2022/06/27 06:02:10;;;;;;;19.15;15.98;;;18.80;99.90;;;;;;5076711;22;20131;-71
2022/06/27 06:04:36;;;;;;;17.92;15.25;;;18.50;99.90;;;;;;5054893;28;20133;-71
2022/06/27 06:07:03;;;;;;;19.45;13.82;;;18.40;99.90;;;;;;5054801;28;20483;-71
2022/06/27 06:09:29;;;;;;;18.63;15.05;;;18.50;99.90;;;;;;5053969;28;20033;-71
2022/06/27 06:11:55;;;;;;;16.92;12.52;;;19.50;99.90;;;;;;5037114;28;20442;-71
2022/06/27 06:14:21;;;;;;;18.85;14.30;;;18.60;99.90;;;;;;5053082;28;20056;-71
2022/06/27 06:16:48;;;;;;;20.60;14.45;;;18.70;99.90;;;;;;5054724;28;20048;-71
2022/06/27 06:19:15;;;;;;;19.23;15.40;;;18.90;99.90;;;;;;5053786;28;20495;-71
2022/06/27 06:21:40;;;;;;;20.48;14.98;;;19.80;99.90;;;;;;5054540;28;20429;-71
2022/06/27 06:24:07;;;;;;;16.83;14.05;;;18.60;99.90;;;;;;5053084;28;20052;-71
2022/06/27 06:26:33;;;;;;;17.38;15.40;;;18.80;99.90;;;;;;5054469;28;20499;-71
2022/06/27 06:29:05;;;;;;;18.58;14.20;;;20.00;99.90;;;;;;5052660;28;20055;-71
2022/06/27 06:31:32;;;;;;;16.67;13.98;;;19.30;99.90;;;;;;5036314;28;20041;-71
2022/06/27 06:33:57;;;;;;;17.83;14.20;;;19.30;99.90;;;;;;5054288;28;20041;-71
2022/06/27 06:36:23;;;;;;;17.10;13.57;;;19.80;99.90;;;;;;5053003;28;20041;-71
2022/06/27 06:38:53;;;;;;;16.70;14.25;;;19.40;99.90;;;;;;5053156;28;20037;-71
2022/06/27 06:41:19;;;;;;;16.25;14.38;;;19.70;99.90;;;;;;5036016;28;20033;-71
2022/06/27 06:43:48;;;;;;;16.58;13.80;;;19.50;99.90;;;;;;5052686;28;20041;-71
2022/06/27 06:46:14;;;;;;;21.50;14.68;;;18.70;99.90;;;;;;5036251;28;20080;-71
2022/06/27 06:48:40;;;;;;;16.25;13.45;;;18.60;99.90;;;;;;5053990;28;20068;-71
2022/06/27 06:51:07;;;;;;;16.00;13.50;;;18.80;99.90;;;;;;5053025;28;20049;-71
2022/06/27 06:53:36;;;;;;;20.65;13.77;;;19.30;99.90;;;;;;5053844;28;20379;-71
2022/06/27 06:56:03;;;;;;;17.13;14.02;;;18.80;99.90;;;;;;5054326;28;20041;-71
2022/06/27 06:58:29;;;;;;;15.93;13.02;;;18.80;99.90;;;;;;5052494;28;20037;-71
2022/06/27 07:00:56;;;;;;;14.13;11.93;;;19.60;99.90;;;;;;5051368;28;20037;-71
2022/06/27 07:03:22;;;;;;;16.05;11.80;;;19.10;99.90;;;;;;5052331;28;20044;-72
2022/06/27 07:05:48;;;;;;;14.15;11.90;;;19.40;99.90;;;;;;5036086;28;20111;-72
2022/06/27 07:08:14;;;;;;;14.63;12.35;;;18.70;99.90;;;;;;5053650;28;20065;-72
2022/06/27 07:10:40;;;;;;;14.57;13.07;;;18.90;99.90;;;;;;5051386;28;20114;-72
2022/06/27 07:13:07;;;;;;;14.98;10.80;;;19.70;99.90;;;;;;5052371;28;20052;-72
2022/06/27 07:15:33;;;;;;;17.75;12.75;;;18.90;99.90;;;;;;5052389;28;20059;-72
2022/06/27 07:18:00;;;;;;;14.60;12.68;;;19.00;99.90;;;;;;5053453;28;20059;-72
2022/06/27 07:20:27;;;;;;;15.88;13.23;;;20.10;99.90;;;;;;5051471;28;20040;-72
2022/06/27 07:22:52;;;;;;;15.05;11.73;;;19.00;99.90;;;;;;5035340;28;20032;-72
2022/06/27 07:25:18;;;;;;;13.95;12.45;;;19.30;99.90;;;;;;5052201;28;20471;-72
2022/06/27 07:27:46;;;;;;;15.35;12.43;;;18.80;99.90;;;;;;5053182;28;20128;-72
2022/06/27 07:30:13;;;;;;;14.32;10.88;;;18.60;99.90;;;;;;5034539;28;20037;-72
2022/06/27 07:32:40;;;;;;;12.68;11.02;;;18.70;99.90;;;;;;5051781;28;20123;-72
2022/06/27 07:35:09;;;;;;;14.10;11.40;;;18.70;99.90;;;;;;5053053;28;20037;-72
2022/06/27 07:37:36;;;;;;;12.98;11.40;;;18.70;99.90;;;;;;5052891;28;20037;-72
2022/06/27 07:40:03;;;;;;;14.38;11.18;;;18.50;99.90;;;;;;5051219;28;20044;-72
2022/06/27 07:42:30;;;;;;;14.98;11.70;;;18.60;99.90;;;;;;5052119;28;20463;-72
2022/06/27 07:44:56;;;;;;;14.25;12.45;;;19.90;99.90;;;;;;5052946;28;20059;-72
2022/06/27 07:47:21;;;;;;;14.23;10.55;;;19.60;99.90;;;;;;5051684;28;20037;-72
2022/06/27 07:49:47;;;;;;;15.18;12.20;;;19.70;99.90;;;;;;5052137;28;20455;-72
2022/06/27 07:52:13;;;;;;;13.63;11.65;;;19.00;99.90;;;;;;5052586;28;20045;-71
2022/06/27 07:54:39;;;;;;;13.27;10.85;;;20.00;99.90;;;;;;5051264;28;20041;-72
2022/06/27 07:57:05;;;;;;;11.85;10.63;;;19.10;99.90;;;;;;5051548;28;20074;-72
2022/06/27 07:59:32;;;;;;;17.95;11.23;;;19.00;99.90;;;;;;5033901;28;20142;-72
2022/06/27 08:01:58;;;;;;;12.50;11.20;;;19.10;99.90;;;;;;5033369;28;20044;-72
2022/06/27 08:04:23;;;;;;;11.25;10.07;;;18.80;99.90;;;;;;5051238;28;20175;-72
2022/06/27 08:06:50;;;;;;;11.13;9.98;;;19.30;99.90;;;;;;5051410;28;20040;-72
2022/06/27 08:09:19;;;;;;;14.55;11.15;;;19.30;99.90;;;;;;5050352;28;20085;-72
2022/06/27 08:11:45;;;;;;;12.95;10.85;;;20.80;99.90;;;;;;5051283;28;20047;-72
2022/06/27 08:14:17;;;;;;;11.48;10.27;;;19.90;99.90;;;;;;5052126;28;20124;-73
2022/06/27 08:16:46;;;;;;;11.70;9.27;;;19.70;99.90;;;;;;5050815;28;20048;-72
2022/06/27 08:19:12;;;;;;;11.35;10.18;;;19.80;99.90;;;;;;5050433;28;20036;-72
2022/06/27 08:21:41;;;;;;;11.25;9.48;;;19.70;99.90;;;;;;5050848;28;20051;-72
2022/06/27 08:24:08;;;;;;;10.93;9.65;;;19.70;99.90;;;;;;5050838;28;20041;-73
2022/06/27 08:26:35;;;;;;;13.43;10.80;;;19.70;99.90;;;;;;5050850;28;20044;-72
2022/06/27 08:29:03;;;;;;;11.27;9.57;;;20.40;99.90;;;;;;5051412;28;20041;-72
2022/06/27 08:31:30;;;;;;;11.32;9.25;;;19.60;99.90;;;;;;5050464;28;20041;-72
2022/06/27 08:34:00;;;;;;;11.20;9.60;;;19.50;99.90;;;;;;5050728;28;20048;-72
2022/06/27 08:36:27;;;;;;;11.40;9.43;;;20.70;99.90;;;;;;5050702;28;20041;-72
2022/06/27 08:38:53;;;;;;;14.52;10.57;;;20.50;99.90;;;;;;5051527;28;20406;-71
2022/06/27 08:41:21;;;;;;;12.02;9.95;;;19.70;99.90;;;;;;5033669;28;20551;-72
2022/06/27 08:43:55;;;;;;;12.75;10.40;;;19.30;99.90;;;;;;5050354;28;20076;-71
2022/06/27 08:46:22;;;;;;;11.35;9.52;;;19.30;99.90;;;;;;5051959;28;20075;-71
2022/06/27 08:48:49;;;;;;;11.10;9.20;;;20.70;99.90;;;;;;5051763;28;20120;-71
2022/06/27 08:51:15;;;;;;;9.45;8.50;;;19.40;99.90;;;;;;5051025;28;20072;-71
2022/06/27 08:53:41;;;;;;;11.57;8.85;;;20.30;99.90;;;;;;5050385;28;20033;-71
2022/06/27 08:56:12;;;;;;;9.70;8.73;;;20.50;99.90;;;;;;5050412;28;20037;-72
2022/06/27 08:58:40;;;;;;;11.38;9.63;;;19.70;99.90;;;;;;5050490;28;20318;-72
2022/06/27 09:01:06;;;;;;;11.05;7.80;;;20.10;99.90;;;;;;5049985;28;20071;-71
2022/06/27 09:03:33;;;;;;;11.70;8.73;;;20.00;99.90;;;;;;5033536;28;20045;-71
2022/06/27 09:06:02;;;;;;;14.40;8.98;;;19.90;99.90;;;;;;5050300;28;20052;-72
2022/06/27 09:08:32;;;;;;;11.43;8.02;;;20.90;99.90;;;;;;5050120;28;20048;-71
2022/06/27 09:11:00;;;;;;;9.07;8.00;;;20.50;99.90;;;;;;5049486;28;20048;-71
2022/06/27 09:13:27;;;;;;;10.07;8.57;;;18.60;99.90;;;;;;5051359;28;20045;-71
2022/06/27 09:16:03;;;;;;;10.05;9.00;;;21.90;99.90;;;;;;5033465;28;20124;-71
2022/06/27 09:18:36;;;;;;;9.52;7.45;;;20.50;99.90;;;;;;5051271;28;20565;-70
2022/06/27 09:21:09;;;;;;;13.40;9.00;;;20.90;99.90;;;;;;5050469;28;20044;-71
2022/06/27 09:23:47;;;;;;;9.23;7.70;;;20.80;99.90;;;;;;5050188;28;20481;-71
2022/06/27 09:26:21;;;;;;;11.65;7.82;;;20.70;99.90;;;;;;5051404;28;20459;-71
2022/06/27 09:28:50;;;;;;;10.68;7.65;;;20.60;99.90;;;;;;5052678;28;20045;-71
2022/06/27 09:31:30;;;;;;;8.52;7.35;;;21.10;99.90;;;;;;5054638;28;20041;-71
2022/06/27 09:34:18;;;;;;;11.25;7.85;;;21.20;99.90;;;;;;5055267;28;20183;-71
2022/06/27 09:36:51;;;;;;;10.52;7.20;;;21.20;99.90;;;;;;5053999;28;20094;-71
2022/06/27 09:39:24;;;;;;;6.68;5.97;;;21.30;99.90;;;;;;5053201;28;20049;-71
2022/06/27 09:42:14;;;;;;;7.45;5.55;;;21.50;99.90;;;;;;5053871;28;20063;-71
2022/06/27 09:44:42;;;;;;;10.70;7.72;;;21.20;99.90;;;;;;5053738;28;20036;-72
2022/06/27 09:47:20;;;;;;;8.27;6.43;;;21.00;99.90;;;;;;5037134;28;20052;-72
2022/06/27 09:49:49;;;;;;;6.75;5.75;;;21.10;99.90;;;;;;5054305;28;20041;-72
2022/06/27 09:52:20;;;;;;;8.55;6.30;;;22.60;99.90;;;;;;5053576;28;20072;-72
2022/06/27 09:54:48;;;;;;;8.77;5.45;;;21.10;99.90;;;;;;5055050;28;20072;-72
2022/06/27 09:57:16;;;;;;;9.75;5.68;;;21.50;99.90;;;;;;5054973;28;20036;-72
2022/06/27 09:59:43;;;;;;;7.65;5.43;;;21.20;99.90;;;;;;5052988;28;20047;-72
2022/06/27 10:02:11;;;;;;;9.77;6.30;;;23.30;99.90;;;;;;5052732;28;20037;-72
2022/06/27 10:04:37;;;;;;;6.05;5.43;;;21.80;99.90;;;;;;5054934;28;20123;-72
2022/06/27 10:07:06;;;;;;;6.15;5.07;;;22.60;99.90;;;;;;5037047;28;20067;-72
2022/06/27 10:09:32;;;;;;;5.35;4.85;;;21.20;99.90;;;;;;5052687;28;20053;-72
2022/06/27 10:12:21;;;;;;;6.68;5.90;;;21.10;99.90;;;;;;5053251;28;20041;-72
2022/06/27 10:15:06;;;;;;;6.18;5.47;;;21.00;99.90;;;;;;5053099;28;20049;-72
2022/06/27 10:17:35;;;;;;;11.32;7.28;;;21.10;99.90;;;;;;5054427;28;20037;-72
2022/06/27 10:20:06;;;;;;;9.55;7.00;;;21.90;99.90;;;;;;5035717;28;20586;-72
2022/06/27 10:22:31;;;;;;;11.45;6.55;;;20.50;99.90;;;;;;5053131;28;20045;-72
2022/06/27 10:25:26;;;;;;;5.93;4.97;;;21.50;99.90;;;;;;5053477;28;20045;-73
2022/06/27 10:30:38;;;;;;;6.13;5.18;;;20.90;99.90;;;;;;5052189;28;20048;-72
2022/06/27 10:33:18;;;;;;;10.98;6.38;;;20.90;99.90;;;;;;5036184;28;20047;-72
2022/06/27 10:36:01;;;;;;;8.00;5.65;;;20.80;99.90;;;;;;5036535;28;20449;-72
2022/06/27 10:38:40;;;;;;;10.18;5.25;;;21.60;99.90;;;;;;5052638;28;20048;-72
2022/06/27 10:41:10;;;;;;;7.53;5.50;;;20.80;99.90;;;;;;5052376;28;20373;-72
2022/06/27 10:43:36;;;;;;;8.25;6.53;;;20.70;99.90;;;;;;5053101;28;20063;-72
2022/06/27 10:46:10;;;;;;;8.48;6.22;;;20.80;99.90;;;;;;5054242;28;20040;-72
2022/06/27 10:48:45;;;;;;;8.70;5.15;;;21.00;99.90;;;;;;5054951;28;20051;-72
2022/06/27 10:51:26;;;;;;;6.93;5.03;;;20.70;99.90;;;;;;5044630;28;20037;-72
2022/06/27 10:54:04;;;;;;;5.60;4.47;;;20.70;99.90;;;;;;5062573;28;20055;-72
2022/06/27 10:56:36;;;;;;;6.28;4.60;;;20.80;99.90;;;;;;5057658;28;20033;-72
2022/06/27 10:59:05;;;;;;;6.20;4.82;;;20.80;99.90;;;;;;5054903;28;20041;-73
2022/06/27 11:01:32;;;;;;;8.35;4.93;;;20.60;99.90;;;;;;5037267;28;20511;-73
2022/06/27 11:03:59;;;;;;;5.93;5.10;;;22.20;99.90;;;;;;5056768;28;20045;-73
2022/06/27 11:06:26;;;;;;;6.00;4.97;;;21.00;99.90;;;;;;5053516;28;20458;-71
2022/06/27 11:08:53;;;;;;;8.95;4.35;;;20.80;99.90;;;;;;5051846;28;20041;-69
2022/06/27 11:11:25;;;;;;;7.88;4.20;;;21.80;99.90;;;;;;5052174;28;20041;-71
2022/06/27 11:13:58;;;;;;;9.82;4.70;;;21.00;99.90;;;;;;5053253;28;20040;-71
2022/06/27 11:16:32;;;;;;;6.80;4.93;;;21.20;99.90;;;;;;5052323;28;20360;-71
2022/06/27 11:19:03;;;;;;;11.70;4.03;;;22.40;99.90;;;;;;5051488;28;20040;-71
2022/06/27 11:21:33;;;;;;;8.93;4.50;;;21.20;99.90;;;;;;5051684;28;20037;-71
2022/06/27 11:24:11;;;;;;;9.27;3.95;;;21.20;99.90;;;;;;5035362;28;20040;-73
2022/06/27 11:26:46;;;;;;;6.82;4.30;;;21.30;99.90;;;;;;5052135;28;20402;-71
2022/06/27 11:32:07;;;;;;;6.00;3.80;;;21.20;99.90;;;;;;5051700;28;20419;-71
2022/06/27 11:34:36;;;;;;;4.82;3.80;;;21.10;99.90;;;;;;5053089;28;20090;-71
2022/06/27 11:37:14;;;;;;;4.93;4.45;;;21.80;99.90;;;;;;5051637;28;20037;-71
2022/06/27 11:39:41;;;;;;;5.03;4.07;;;21.30;99.90;;;;;;5034145;28;20076;-71
2022/06/27 11:42:10;;;;;;;5.63;4.32;;;21.40;99.90;;;;;;5053083;28;20036;-71
2022/06/27 11:44:37;;;;;;;7.35;4.25;;;21.40;99.90;;;;;;5051778;28;20040;-71
2022/06/27 11:47:08;;;;;;;6.18;4.40;;;22.50;99.90;;;;;;5052106;28;20063;-71
2022/06/27 11:49:37;;;;;;;7.20;3.67;;;21.60;99.90;;;;;;5050627;28;20033;-73
2022/06/27 11:52:05;;;;;;;8.27;4.93;;;22.10;99.90;;;;;;5050318;28;20095;-71
2022/06/27 11:54:41;;;;;;;8.95;5.18;;;22.10;99.90;;;;;;5052525;28;20513;-71
2022/06/27 11:57:23;;;;;;;7.97;4.85;;;22.40;99.90;;;;;;5034775;28;20047;-71
2022/06/27 11:59:50;;;;;;;6.28;5.00;;;22.20;99.90;;;;;;5050552;28;20079;-71
2022/06/27 12:02:50;;;;;;;5.50;3.92;;;22.10;99.90;;;;;;5073508;22;20270;-70
2022/06/27 12:05:19;;;;;;;6.47;4.47;;;22.70;99.90;;;;;;5041479;28;20136;-70
2022/06/27 12:07:52;;;;;;;5.80;3.90;;;21.80;99.90;;;;;;5052159;28;20041;-71
2022/06/27 12:10:36;;;;;;;5.55;3.97;;;23.50;99.90;;;;;;5066777;28;20045;-70
2022/06/27 12:13:03;;;;;;;6.35;4.43;;;22.00;99.90;;;;;;5052251;28;20037;-70
2022/06/27 12:15:29;;;;;;;3.60;3.28;;;23.00;99.90;;;;;;5050824;28;20517;-70
2022/06/27 12:17:59;;;;;;;8.18;3.92;;;22.90;99.90;;;;;;5050864;28;20055;-70
2022/06/27 12:20:30;;;;;;;4.93;3.58;;;22.40;99.90;;;;;;5050089;28;20059;-70
2022/06/27 12:22:55;;;;;;;6.80;5.00;;;22.30;99.90;;;;;;5051856;28;20037;-71
2022/06/27 12:25:21;;;;;;;9.55;4.43;;;22.30;99.90;;;;;;5051679;28;20082;-70
2022/06/27 12:27:48;;;;;;;6.35;5.13;;;21.90;99.90;;;;;;5050761;28;20082;-70
2022/06/27 12:30:15;;;;;;;5.93;4.65;;;22.00;99.90;;;;;;5049653;28;20143;-70
2022/06/27 12:32:42;;;;;;;7.05;4.90;;;22.70;99.90;;;;;;5051630;28;20044;-70
2022/06/27 12:35:08;;;;;;;8.88;4.60;;;22.90;99.90;;;;;;5050222;28;20576;-70
2022/06/27 12:37:35;;;;;;;5.75;4.00;;;22.00;99.90;;;;;;5051624;28;20052;-70
2022/06/27 12:40:02;;;;;;;5.93;4.38;;;22.20;99.90;;;;;;5033128;28;20043;-71
2022/06/27 12:42:28;;;;;;;6.07;4.03;;;22.10;99.90;;;;;;5050460;28;20101;-70
2022/06/27 12:44:53;;;;;;;5.80;3.78;;;21.80;99.90;;;;;;5050244;28;20048;-69
2022/06/27 12:47:20;;;;;;;5.13;3.67;;;21.80;99.90;;;;;;5033913;28;20403;-68
2022/06/27 12:49:45;;;;;;;7.80;4.20;;;22.20;99.90;;;;;;5049692;28;20037;-70
2022/06/27 12:52:11;;;;;;;9.10;4.22;;;22.50;99.90;;;;;;5051335;28;20040;-70
2022/06/27 12:54:36;;;;;;;6.25;3.83;;;22.50;99.90;;;;;;5050345;28;20635;-70